Oriibu — JD2579 — position and weather

sailwx.info

Track history (hours):
 
Tides and Currents Weather Stations Pressure Air Temp Water Temp Dewpoint Dewpoint Depression Visibility Wind Speed Wind Dir Waves Ship Positions

Oriibu

Last reported at 2016-Jul-28 04:31 UTC. Time now 2016-Jul-29 00:10 UTC.
Position N 34°60' E 140°09'.

Length 75 m; draft 4.2 m.

MMSI: 431000426.

Date/timePositionNaut miles runAvg speedWind from/ knotsBaromVisibWave heightAir tempDewpointWater temp
2016-Jul-28 04:31N 34°60' E 140°09'  
2016-Jul-25 20:28N 35°57' E 140°57'1212.2
2016-Jul-25 19:30N 35°46' E 140°55'1111.2
2016-Jul-25 18:33N 35°36' E 140°50'2612.7
2016-Jul-25 16:30N 35°15' E 140°31'2312.1
2016-Jul-25 14:33N 34°60' E 140°09'21 8.7
2016-Jul-25 12:11N 35°01' E 139°44'812.0
2016-Jul-25 11:33N 35°09' E 139°45'1111.4
2016-Jul-25 10:33N 35°20' E 139°42'1110.9
2016-Jul-25 09:33N 35°29' E 139°50'1111.0
2016-Jul-25 08:33N 35°37' E 139°58'3 3.5
2016-Jul-25 07:33N 35°41' E 139°59'0 0.2
2016-Jul-25 06:31N 35°41' E 139°58'0 0.0
2016-Jul-25 05:25N 35°41' E 139°58'0 0.1
2016-Jul-25 04:31N 35°41' E 139°58'0 0.0
2016-Jul-25 03:31N 35°41' E 139°58'0 0.0
2016-Jul-25 02:25N 35°41' E 139°58'0 0.2
2016-Jul-25 01:33N 35°41' E 139°59'2 2.0
2016-Jul-25 00:30N 35°40' E 139°56'0 0.0
2016-Jul-24 23:30N 35°40' E 139°56'1 1.4
2016-Jul-24 22:33N 35°40' E 139°58'5 5.4
2016-Jul-24 21:33N 35°34' E 139°56'9 9.4
2016-Jul-24 20:33N 35°27' E 139°49'1010.1
2016-Jul-24 19:33N 35°17' E 139°46'1110.3
2016-Jul-24 18:31N 35°06' E 139°45'  
2016-Jul-18 22:18N 34°08' E 134°60'1111.2
2016-Jul-18 21:18N 34°19' E 134°59'810.8
2016-Jul-18 20:32N 34°27' E 135°01'1010.0
2016-Jul-18 19:31N 34°37' E 135°00'  
Track history (hours):
 
Tides and Currents Weather Stations Pressure Air Temp Water Temp Dewpoint Dewpoint Depression Visibility Wind Speed Wind Dir Waves Ship Positions

Oriibu

Last reported at 2016-Jul-28 04:31 UTC. Time now 2016-Jul-29 00:10 UTC.
Position N 34°60' E 140°09'.

Length 75 m; draft 4.2 m.

MMSI: 431000426.

Date/timePositionNaut miles runAvg speedWind from/ knotsBaromVisibWave heightAir tempDewpointWater temp
2016-Jul-28 04:31N 34°60' E 140°09'  
2016-Jul-25 20:28N 35°57' E 140°57'1212.2
2016-Jul-25 19:30N 35°46' E 140°55'1111.2
2016-Jul-25 18:33N 35°36' E 140°50'2612.7
2016-Jul-25 16:30N 35°15' E 140°31'2312.1
2016-Jul-25 14:33N 34°60' E 140°09'21 8.7
2016-Jul-25 12:11N 35°01' E 139°44'812.0
2016-Jul-25 11:33N 35°09' E 139°45'1111.4
2016-Jul-25 10:33N 35°20' E 139°42'1110.9
2016-Jul-25 09:33N 35°29' E 139°50'1111.0
2016-Jul-25 08:33N 35°37' E 139°58'3 3.5
2016-Jul-25 07:33N 35°41' E 139°59'0 0.2
2016-Jul-25 06:31N 35°41' E 139°58'0 0.0
2016-Jul-25 05:25N 35°41' E 139°58'0 0.1
2016-Jul-25 04:31N 35°41' E 139°58'0 0.0
2016-Jul-25 03:31N 35°41' E 139°58'0 0.0
2016-Jul-25 02:25N 35°41' E 139°58'0 0.2
2016-Jul-25 01:33N 35°41' E 139°59'2 2.0
2016-Jul-25 00:30N 35°40' E 139°56'0 0.0
2016-Jul-24 23:30N 35°40' E 139°56'1 1.4
2016-Jul-24 22:33N 35°40' E 139°58'5 5.4
2016-Jul-24 21:33N 35°34' E 139°56'9 9.4
2016-Jul-24 20:33N 35°27' E 139°49'1010.1
2016-Jul-24 19:33N 35°17' E 139°46'1110.3
2016-Jul-24 18:31N 35°06' E 139°45'  
2016-Jul-18 22:18N 34°08' E 134°60'1111.2
2016-Jul-18 21:18N 34°19' E 134°59'810.8
2016-Jul-18 20:32N 34°27' E 135°01'1010.0
2016-Jul-18 19:31N 34°37' E 135°00'  

Dump ship's entire track history